• Join FlightAware (Why Join?)
  • Login
  • US Flag 
10:41PM EST


 

Airport Tracker/Info


-or-


 

Live Flight TrackerFlight Track Log ✈ TAM3914 ✈ 11-Nov-2013 ✈ SBSP / CGH - SBRJ / SDU

Flight Track Log - Related Links

Times and Time Zones

All times are in EST time to prevent confusion due to time zone crossing. See the TAM3914 flight status page for this flight to view local times or setup timezone preferences in your user account.

Time Position Orientation Groundspeed Altitude Reporting Facility
EST Latitude Longitude Course Direction KTS MPH feet Rate Location/Type
07:24AM -23.4552 -45.7802 78° East  Level Estimated
07:25AM -23.4334 -45.6710 78° East  Level Estimated
07:26AM -23.4115 -45.5617 78° East  Level Estimated
07:27AM -23.3896 -45.4526 78° East  Level Estimated
07:28AM -23.3676 -45.3435 78° East  Level Estimated
07:29AM -23.3455 -45.2344 78° East  Level Estimated
07:30AM -23.3234 -45.1253 78° East  Level Estimated
07:31AM -23.3011 -45.0163 77° East  Level Estimated
07:32AM -23.2788 -44.9073 77° East  Level Estimated
07:33AM -23.2564 -44.7984 77° East  Level Estimated
07:34AM -23.2339 -44.6894 77° East  Level Estimated
07:35AM -23.2114 -44.5806 77° East  Level Estimated
07:36AM -23.1888 -44.4717 77° East  Level Estimated
07:37AM -23.1661 -44.3629 77° East  Level Estimated
07:38AM -23.1434 -44.2542 77° East  Level Estimated
07:39AM -23.1205 -44.1455 77° East  Level Estimated
07:40AM -23.0976 -44.0368 77° East  Level Estimated
07:41AM -23.0746 -43.9281 77° East  Level Estimated
07:42AM -23.0516 -43.8195 77° East  Level Estimated
07:43AM -23.0284 -43.7109 77° East  Level Estimated
07:44AM -23.0052 -43.6024 77° East  Level Estimated
07:45AM -22.9819 -43.4939 77° East  Level Estimated
07:46AM -22.9586 -43.3854 77° East  Level Estimated
07:47AM -22.9352 -43.2770 77° East  Level Estimated
07:48AM -22.9116 -43.1686 77° East  Level Estimated
07:49AM -22.9105 -43.1631 77° East  Level Estimated
07:50AM -22.9105 -43.1631 250° West  Level Estimated
07:51AM -22.9105 -43.1631 250° West  Level Estimated
07:52AM -22.9105 -43.1631 250° West  Level Estimated
07:53AM -22.9105 -43.1631 250° West  Level Estimated
07:54AM -22.9105 -43.1631 250° West  Level Estimated
07:55AM -22.9105 -43.1631 250° West  Level Estimated
07:56AM -22.9105 -43.1631 250° West  Level Estimated
07:57AM -22.9105 -43.1631 250° West  Level Estimated
07:58AM -22.9105 -43.1631 250° West  Level Estimated
07:59AM -22.9105 -43.1631 250° West  Level Estimated
08:00AM -22.9105 -43.1631 250° West  Level Estimated
08:01AM -22.9105 -43.1631 250° West  Level Estimated
08:02AM -22.9105 -43.1631 250° West  Level Estimated
08:03AM -22.9105 -43.1631 250° West  Level Estimated
08:04AM -22.9105 -43.1631 250° West  Level Estimated